sensor_id;sensor_type;location;lat;lon;timestamp;pressure;altitude;pressure_sealevel;temperature;humidity
5522;BME280;2783;48.730;8.006;2022-09-24T00:01:09;99791.56;;;14.11;100.00
5522;BME280;2783;48.730;8.006;2022-09-24T00:03:37;99800.75;;;14.06;100.00
5522;BME280;2783;48.730;8.006;2022-09-24T00:06:03;99797.22;;;14.05;100.00
5522;BME280;2783;48.730;8.006;2022-09-24T00:08:29;99806.25;;;14.03;100.00
5522;BME280;2783;48.730;8.006;2022-09-24T00:10:54;99801.16;;;13.98;100.00
5522;BME280;2783;48.730;8.006;2022-09-24T00:13:21;99790.81;;;13.91;100.00
5522;BME280;2783;48.730;8.006;2022-09-24T00:15:48;99789.38;;;13.84;100.00
5522;BME280;2783;48.730;8.006;2022-09-24T00:18:16;99779.16;;;13.75;100.00
5522;BME280;2783;48.730;8.006;2022-09-24T00:20:41;99782.22;;;13.67;100.00
5522;BME280;2783;48.730;8.006;2022-09-24T00:23:08;99778.91;;;13.62;100.00
5522;BME280;2783;48.730;8.006;2022-09-24T00:25:42;99778.19;;;13.59;100.00
5522;BME280;2783;48.730;8.006;2022-09-24T00:28:27;99778.59;;;13.50;100.00
5522;BME280;2783;48.730;8.006;2022-09-24T00:30:53;99793.16;;;13.44;100.00
5522;BME280;2783;48.730;8.006;2022-09-24T00:33:18;99780.00;;;13.40;100.00
5522;BME280;2783;48.730;8.006;2022-09-24T00:35:45;99771.22;;;13.38;100.00
5522;BME280;2783;48.730;8.006;2022-09-24T00:38:10;99775.75;;;13.36;100.00
5522;BME280;2783;48.730;8.006;2022-09-24T00:40:37;99772.28;;;13.34;100.00
5522;BME280;2783;48.730;8.006;2022-09-24T00:43:29;99775.03;;;13.32;100.00
5522;BME280;2783;48.730;8.006;2022-09-24T00:46:21;99774.38;;;13.27;100.00
5522;BME280;2783;48.730;8.006;2022-09-24T00:48:49;99763.75;;;13.26;100.00
5522;BME280;2783;48.730;8.006;2022-09-24T00:51:19;99748.00;;;13.19;100.00
5522;BME280;2783;48.730;8.006;2022-09-24T00:53:48;99762.59;;;13.31;100.00
5522;BME280;2783;48.730;8.006;2022-09-24T00:56:15;99764.25;;;13.34;100.00
5522;BME280;2783;48.730;8.006;2022-09-24T00:58:47;99753.50;;;13.35;100.00
5522;BME280;2783;48.730;8.006;2022-09-24T01:01:14;99759.56;;;13.39;100.00
5522;BME280;2783;48.730;8.006;2022-09-24T01:03:40;99763.69;;;13.46;100.00
5522;BME280;2783;48.730;8.006;2022-09-24T01:06:10;99756.25;;;13.52;100.00
5522;BME280;2783;48.730;8.006;2022-09-24T01:08:35;99737.38;;;13.55;100.00
5522;BME280;2783;48.730;8.006;2022-09-24T01:11:07;99738.09;;;13.59;100.00
5522;BME280;2783;48.730;8.006;2022-09-24T01:21:51;99736.44;;;13.56;100.00
5522;BME280;2783;48.730;8.006;2022-09-24T01:27:16;99724.56;;;13.62;100.00
5522;BME280;2783;48.730;8.006;2022-09-24T01:32:32;99720.94;;;13.63;100.00
5522;BME280;2783;48.730;8.006;2022-09-24T01:35:08;99727.25;;;13.62;100.00
5522;BME280;2783;48.730;8.006;2022-09-24T01:37:39;99725.22;;;13.67;100.00
5522;BME280;2783;48.730;8.006;2022-09-24T01:40:08;99708.69;;;13.59;100.00
5522;BME280;2783;48.730;8.006;2022-09-24T01:42:33;99721.66;;;13.66;100.00
5522;BME280;2783;48.730;8.006;2022-09-24T01:45:01;99716.31;;;13.66;100.00
5522;BME280;2783;48.730;8.006;2022-09-24T01:47:33;99717.34;;;13.64;100.00
5522;BME280;2783;48.730;8.006;2022-09-24T01:50:02;99717.47;;;13.61;100.00
5522;BME280;2783;48.730;8.006;2022-09-24T01:52:33;99716.63;;;13.60;100.00
5522;BME280;2783;48.730;8.006;2022-09-24T01:55:00;99716.72;;;13.59;100.00
5522;BME280;2783;48.730;8.006;2022-09-24T01:57:34;99727.88;;;13.67;100.00
5522;BME280;2783;48.730;8.006;2022-09-24T02:00:14;99725.84;;;13.72;100.00
5522;BME280;2783;48.730;8.006;2022-09-24T02:05:34;99708.41;;;13.82;100.00
5522;BME280;2783;48.730;8.006;2022-09-24T02:08:04;99709.44;;;13.96;100.00
5522;BME280;2783;48.730;8.006;2022-09-24T02:10:37;99714.38;;;14.04;100.00
5522;BME280;2783;48.730;8.006;2022-09-24T02:13:09;99710.00;;;14.03;100.00
5522;BME280;2783;48.730;8.006;2022-09-24T02:15:39;99715.81;;;14.11;100.00
5522;BME280;2783;48.730;8.006;2022-09-24T02:18:08;99698.03;;;14.10;100.00
5522;BME280;2783;48.730;8.006;2022-09-24T02:20:38;99713.28;;;14.08;100.00
5522;BME280;2783;48.730;8.006;2022-09-24T02:23:06;99714.00;;;14.11;100.00
5522;BME280;2783;48.730;8.006;2022-09-24T02:25:47;99717.53;;;14.12;100.00
5522;BME280;2783;48.730;8.006;2022-09-24T02:28:16;99710.53;;;14.09;100.00
5522;BME280;2783;48.730;8.006;2022-09-24T02:30:47;99715.88;;;14.09;100.00
5522;BME280;2783;48.730;8.006;2022-09-24T02:33:15;99706.81;;;14.12;100.00
5522;BME280;2783;48.730;8.006;2022-09-24T02:36:00;99710.22;;;14.15;100.00
5522;BME280;2783;48.730;8.006;2022-09-24T02:38:25;99705.72;;;14.16;100.00
5522;BME280;2783;48.730;8.006;2022-09-24T02:40:51;99698.78;;;14.12;100.00
5522;BME280;2783;48.730;8.006;2022-09-24T02:43:17;99695.19;;;14.13;100.00
5522;BME280;2783;48.730;8.006;2022-09-24T02:45:43;99698.16;;;14.24;100.00
5522;BME280;2783;48.730;8.006;2022-09-24T02:48:08;99701.66;;;14.26;100.00
5522;BME280;2783;48.730;8.006;2022-09-24T02:50:34;99693.78;;;14.23;100.00
5522;BME280;2783;48.730;8.006;2022-09-24T02:52:59;99691.28;;;14.20;100.00
5522;BME280;2783;48.730;8.006;2022-09-24T02:55:25;99699.03;;;14.24;100.00
5522;BME280;2783;48.730;8.006;2022-09-24T02:57:51;99696.16;;;14.29;100.00
5522;BME280;2783;48.730;8.006;2022-09-24T03:00:16;99702.91;;;14.19;100.00
5522;BME280;2783;48.730;8.006;2022-09-24T03:02:45;99703.84;;;14.18;100.00
5522;BME280;2783;48.730;8.006;2022-09-24T03:05:12;99698.50;;;14.18;100.00
5522;BME280;2783;48.730;8.006;2022-09-24T03:07:37;99696.63;;;14.20;100.00
5522;BME280;2783;48.730;8.006;2022-09-24T03:10:03;99695.56;;;14.22;100.00
5522;BME280;2783;48.730;8.006;2022-09-24T03:12:29;99694.63;;;14.23;100.00
5522;BME280;2783;48.730;8.006;2022-09-24T03:14:54;99693.69;;;14.24;100.00
5522;BME280;2783;48.730;8.006;2022-09-24T03:17:19;99676.22;;;14.17;100.00
5522;BME280;2783;48.730;8.006;2022-09-24T03:19:45;99684.88;;;14.22;100.00
5522;BME280;2783;48.730;8.006;2022-09-24T03:22:10;99691.91;;;14.25;100.00
5522;BME280;2783;48.730;8.006;2022-09-24T03:24:35;99703.53;;;14.24;100.00
5522;BME280;2783;48.730;8.006;2022-09-24T03:27:01;99699.91;;;14.25;100.00
5522;BME280;2783;48.730;8.006;2022-09-24T03:29:26;99703.38;;;14.27;100.00
5522;BME280;2783;48.730;8.006;2022-09-24T03:32:10;99689.84;;;14.30;100.00
5522;BME280;2783;48.730;8.006;2022-09-24T03:34:35;99690.63;;;14.32;100.00
5522;BME280;2783;48.730;8.006;2022-09-24T03:37:01;99686.16;;;14.32;100.00
5522;BME280;2783;48.730;8.006;2022-09-24T03:39:26;99679.94;;;14.32;100.00
5522;BME280;2783;48.730;8.006;2022-09-24T03:41:52;99679.13;;;14.30;100.00
5522;BME280;2783;48.730;8.006;2022-09-24T03:44:17;99683.56;;;14.31;100.00
5522;BME280;2783;48.730;8.006;2022-09-24T03:46:42;99673.75;;;14.31;100.00
5522;BME280;2783;48.730;8.006;2022-09-24T03:49:08;99665.72;;;14.31;100.00
5522;BME280;2783;48.730;8.006;2022-09-24T03:51:33;99656.03;;;14.29;100.00
5522;BME280;2783;48.730;8.006;2022-09-24T03:54:00;99667.69;;;14.28;100.00
5522;BME280;2783;48.730;8.006;2022-09-24T03:56:25;99673.16;;;14.25;100.00
5522;BME280;2783;48.730;8.006;2022-09-24T03:58:50;99671.41;;;14.24;100.00
5522;BME280;2783;48.730;8.006;2022-09-24T04:01:16;99667.09;;;14.21;100.00
5522;BME280;2783;48.730;8.006;2022-09-24T04:03:45;99661.06;;;14.18;100.00
5522;BME280;2783;48.730;8.006;2022-09-24T04:06:11;99661.44;;;14.10;100.00
5522;BME280;2783;48.730;8.006;2022-09-24T04:08:37;99660.13;;;14.02;100.00
5522;BME280;2783;48.730;8.006;2022-09-24T04:11:02;99667.81;;;13.91;100.00
5522;BME280;2783;48.730;8.006;2022-09-24T04:13:28;99656.91;;;13.78;100.00
5522;BME280;2783;48.730;8.006;2022-09-24T04:15:53;99655.47;;;13.71;100.00
5522;BME280;2783;48.730;8.006;2022-09-24T04:18:19;99664.03;;;13.61;100.00
5522;BME280;2783;48.730;8.006;2022-09-24T04:20:45;99662.78;;;13.51;100.00
5522;BME280;2783;48.730;8.006;2022-09-24T04:23:11;99660.41;;;13.45;100.00
5522;BME280;2783;48.730;8.006;2022-09-24T04:25:37;99659.84;;;13.38;100.00
5522;BME280;2783;48.730;8.006;2022-09-24T04:28:06;99662.59;;;13.37;100.00
5522;BME280;2783;48.730;8.006;2022-09-24T04:30:33;99665.44;;;13.34;100.00
5522;BME280;2783;48.730;8.006;2022-09-24T04:32:59;99668.19;;;13.32;100.00
5522;BME280;2783;48.730;8.006;2022-09-24T04:35:26;99660.25;;;13.31;100.00
5522;BME280;2783;48.730;8.006;2022-09-24T04:37:52;99660.25;;;13.31;100.00
5522;BME280;2783;48.730;8.006;2022-09-24T04:40:17;99659.44;;;13.29;100.00
5522;BME280;2783;48.730;8.006;2022-09-24T04:42:43;99667.47;;;13.29;100.00
5522;BME280;2783;48.730;8.006;2022-09-24T04:45:11;99663.97;;;13.27;100.00
5522;BME280;2783;48.730;8.006;2022-09-24T04:47:37;99669.16;;;13.30;100.00
5522;BME280;2783;48.730;8.006;2022-09-24T04:50:05;99670.91;;;13.31;100.00
5522;BME280;2783;48.730;8.006;2022-09-24T04:52:31;99662.13;;;13.29;100.00
5522;BME280;2783;48.730;8.006;2022-09-24T04:55:00;99666.44;;;13.31;100.00
5522;BME280;2783;48.730;8.006;2022-09-24T04:57:27;99671.72;;;13.33;100.00
5522;BME280;2783;48.730;8.006;2022-09-24T04:59:54;99653.16;;;13.30;100.00
5522;BME280;2783;48.730;8.006;2022-09-24T05:02:19;99655.06;;;13.28;100.00
5522;BME280;2783;48.730;8.006;2022-09-24T05:04:45;99653.31;;;13.27;100.00
5522;BME280;2783;48.730;8.006;2022-09-24T05:07:11;99655.19;;;13.24;100.00
5522;BME280;2783;48.730;8.006;2022-09-24T05:09:36;99650.63;;;13.27;100.00
5522;BME280;2783;48.730;8.006;2022-09-24T05:12:03;99655.91;;;13.28;100.00
5522;BME280;2783;48.730;8.006;2022-09-24T05:14:28;99654.97;;;13.29;100.00
5522;BME280;2783;48.730;8.006;2022-09-24T05:16:54;99641.78;;;13.26;100.00
5522;BME280;2783;48.730;8.006;2022-09-24T05:19:20;99652.72;;;13.39;100.00
5522;BME280;2783;48.730;8.006;2022-09-24T05:21:45;99650.84;;;13.41;100.00
5522;BME280;2783;48.730;8.006;2022-09-24T05:24:11;99660.25;;;13.48;100.00
5522;BME280;2783;48.730;8.006;2022-09-24T05:26:37;99653.97;;;13.49;100.00
5522;BME280;2783;48.730;8.006;2022-09-24T05:29:21;99657.13;;;13.57;100.00
5522;BME280;2783;48.730;8.006;2022-09-24T05:31:46;99655.09;;;13.62;100.00
5522;BME280;2783;48.730;8.006;2022-09-24T05:34:11;99661.00;;;13.68;100.00
5522;BME280;2783;48.730;8.006;2022-09-24T05:36:39;99660.91;;;13.70;100.00
5522;BME280;2783;48.730;8.006;2022-09-24T05:39:05;99658.94;;;13.73;100.00
5522;BME280;2783;48.730;8.006;2022-09-24T05:41:31;99657.16;;;13.74;100.00
5522;BME280;2783;48.730;8.006;2022-09-24T05:43:56;99663.97;;;13.79;100.00
5522;BME280;2783;48.730;8.006;2022-09-24T05:46:22;99670.91;;;13.83;100.00
5522;BME280;2783;48.730;8.006;2022-09-24T05:48:47;99675.22;;;13.86;100.00
5522;BME280;2783;48.730;8.006;2022-09-24T05:51:13;99683.22;;;13.86;100.00
5522;BME280;2783;48.730;8.006;2022-09-24T05:53:39;99677.72;;;13.89;100.00
5522;BME280;2783;48.730;8.006;2022-09-24T05:56:04;99675.06;;;13.89;100.00
5522;BME280;2783;48.730;8.006;2022-09-24T05:58:30;99673.97;;;13.93;100.00
5522;BME280;2783;48.730;8.006;2022-09-24T06:00:58;99674.59;;;13.98;100.00
5522;BME280;2783;48.730;8.006;2022-09-24T06:03:24;99681.44;;;14.03;100.00
5522;BME280;2783;48.730;8.006;2022-09-24T06:05:50;99669.78;;;14.04;100.00
5522;BME280;2783;48.730;8.006;2022-09-24T06:08:20;99676.56;;;14.11;100.00
5522;BME280;2783;48.730;8.006;2022-09-24T06:10:46;99677.09;;;14.18;100.00
5522;BME280;2783;48.730;8.006;2022-09-24T06:13:15;99689.34;;;14.22;100.00
5522;BME280;2783;48.730;8.006;2022-09-24T06:15:42;99683.00;;;14.24;100.00
5522;BME280;2783;48.730;8.006;2022-09-24T06:18:11;99689.09;;;14.28;100.00
5522;BME280;2783;48.730;8.006;2022-09-24T06:20:37;99687.16;;;14.30;100.00
5522;BME280;2783;48.730;8.006;2022-09-24T06:23:03;99690.47;;;14.35;100.00
5522;BME280;2783;48.730;8.006;2022-09-24T06:25:29;99688.59;;;14.37;100.00
5522;BME280;2783;48.730;8.006;2022-09-24T06:28:03;99677.63;;;14.41;100.00
5522;BME280;2783;48.730;8.006;2022-09-24T06:30:29;99688.94;;;14.46;100.00
5522;BME280;2783;48.730;8.006;2022-09-24T06:33:00;99692.94;;;14.55;100.00
5522;BME280;2783;48.730;8.006;2022-09-24T06:35:26;99680.34;;;14.57;100.00
5522;BME280;2783;48.730;8.006;2022-09-24T06:37:52;99679.25;;;14.61;100.00
5522;BME280;2783;48.730;8.006;2022-09-24T06:40:17;99681.22;;;14.58;100.00
5522;BME280;2783;48.730;8.006;2022-09-24T06:42:43;99677.59;;;14.59;100.00
5522;BME280;2783;48.730;8.006;2022-09-24T06:45:09;99681.94;;;14.61;100.00
5522;BME280;2783;48.730;8.006;2022-09-24T06:47:34;99690.72;;;14.63;100.00
5522;BME280;2783;48.730;8.006;2022-09-24T06:49:59;99685.97;;;14.68;100.00
5522;BME280;2783;48.730;8.006;2022-09-24T06:52:28;99686.59;;;14.73;100.00
5522;BME280;2783;48.730;8.006;2022-09-24T06:54:54;99690.75;;;14.79;100.00
5522;BME280;2783;48.730;8.006;2022-09-24T06:57:20;99701.81;;;14.88;100.00
5522;BME280;2783;48.730;8.006;2022-09-24T06:59:46;99699.75;;;14.93;100.00
5522;BME280;2783;48.730;8.006;2022-09-24T07:02:12;99697.69;;;14.98;100.00
5522;BME280;2783;48.730;8.006;2022-09-24T07:04:37;99698.31;;;15.03;100.00
5522;BME280;2783;48.730;8.006;2022-09-24T07:07:04;99691.06;;;15.05;100.00
5522;BME280;2783;48.730;8.006;2022-09-24T07:09:48;99698.91;;;15.08;100.00
5522;BME280;2783;48.730;8.006;2022-09-24T07:12:13;99691.66;;;15.10;100.00
5522;BME280;2783;48.730;8.006;2022-09-24T07:14:38;99698.25;;;15.20;100.00
5522;BME280;2783;48.730;8.006;2022-09-24T07:17:04;99709.81;;;15.21;100.00
5522;BME280;2783;48.730;8.006;2022-09-24T07:19:29;99713.09;;;15.26;100.00
5522;BME280;2783;48.730;8.006;2022-09-24T07:21:55;99717.44;;;15.28;100.00
5522;BME280;2783;48.730;8.006;2022-09-24T07:24:20;99710.16;;;15.30;100.00
5522;BME280;2783;48.730;8.006;2022-09-24T07:26:46;99713.59;;;15.32;100.00
5522;BME280;2783;48.730;8.006;2022-09-24T07:29:11;99718.50;;;15.41;100.00
5522;BME280;2783;48.730;8.006;2022-09-24T07:31:37;99717.72;;;15.39;100.00
5522;BME280;2783;48.730;8.006;2022-09-24T07:34:02;99714.31;;;15.36;100.00
5522;BME280;2783;48.730;8.006;2022-09-24T07:36:30;99708.06;;;15.35;100.00
5522;BME280;2783;48.730;8.006;2022-09-24T07:38:56;99701.16;;;15.31;100.00
5522;BME280;2783;48.730;8.006;2022-09-24T07:41:22;99707.50;;;15.46;100.00
5522;BME280;2783;48.730;8.006;2022-09-24T07:43:47;99699.97;;;15.52;100.00
5522;BME280;2783;48.730;8.006;2022-09-24T07:46:13;99690.97;;;15.53;100.00
5522;BME280;2783;48.730;8.006;2022-09-24T07:48:38;99695.03;;;15.60;100.00
5522;BME280;2783;48.730;8.006;2022-09-24T07:51:08;99694.09;;;15.61;100.00
5522;BME280;2783;48.730;8.006;2022-09-24T07:53:34;99701.31;;;15.75;100.00
5522;BME280;2783;48.730;8.006;2022-09-24T07:56:00;99710.63;;;15.83;100.00
5522;BME280;2783;48.730;8.006;2022-09-24T07:58:25;99713.03;;;15.88;100.00
5522;BME280;2783;48.730;8.006;2022-09-24T08:00:51;99727.03;;;15.93;100.00
5522;BME280;2783;48.730;8.006;2022-09-24T08:03:16;99729.88;;;16.06;100.00
5522;BME280;2783;48.730;8.006;2022-09-24T08:05:43;99728.81;;;16.08;100.00
5522;BME280;2783;48.730;8.006;2022-09-24T08:08:09;99730.66;;;16.08;100.00
5522;BME280;2783;48.730;8.006;2022-09-24T08:10:35;99734.97;;;16.10;100.00
5522;BME280;2783;48.730;8.006;2022-09-24T08:13:01;99729.78;;;16.07;100.00
5522;BME280;2783;48.730;8.006;2022-09-24T08:15:26;99740.16;;;16.13;100.00
5522;BME280;2783;48.730;8.006;2022-09-24T08:17:52;99739.97;;;16.16;100.00
5522;BME280;2783;48.730;8.006;2022-09-24T08:20:17;99729.41;;;16.13;100.00
5522;BME280;2783;48.730;8.006;2022-09-24T08:22:43;99730.69;;;16.22;100.00
5522;BME280;2783;48.730;8.006;2022-09-24T08:25:08;99734.56;;;16.32;100.00
5522;BME280;2783;48.730;8.006;2022-09-24T08:27:34;99740.41;;;16.38;100.00
5522;BME280;2783;48.730;8.006;2022-09-24T08:30:02;99739.19;;;16.44;100.00
5522;BME280;2783;48.730;8.006;2022-09-24T08:32:27;99747.69;;;16.52;100.00
5522;BME280;2783;48.730;8.006;2022-09-24T08:34:55;99741.63;;;16.62;100.00
5522;BME280;2783;48.730;8.006;2022-09-24T08:37:20;99733.13;;;16.70;100.00
5522;BME280;2783;48.730;8.006;2022-09-24T08:39:46;99729.66;;;16.82;100.00
5522;BME280;2783;48.730;8.006;2022-09-24T08:44:59;99730.41;;;17.12;100.00
5522;BME280;2783;48.730;8.006;2022-09-24T08:47:48;99737.28;;;17.30;100.00
5522;BME280;2783;48.730;8.006;2022-09-24T08:50:16;99738.06;;;17.46;99.24
5522;BME280;2783;48.730;8.006;2022-09-24T08:55:42;99739.06;;;17.72;96.38
5522;BME280;2783;48.730;8.006;2022-09-24T09:01:17;99724.28;;;17.91;95.54
5522;BME280;2783;48.730;8.006;2022-09-24T09:09:21;99732.97;;;18.21;94.03
5522;BME280;2783;48.730;8.006;2022-09-24T09:11:56;99730.41;;;18.32;93.92
5522;BME280;2783;48.730;8.006;2022-09-24T09:14:36;99738.69;;;18.29;92.77
5522;BME280;2783;48.730;8.006;2022-09-24T09:17:11;99728.34;;;18.23;93.66
5522;BME280;2783;48.730;8.006;2022-09-24T09:19:41;99729.72;;;18.16;93.30
5522;BME280;2783;48.730;8.006;2022-09-24T09:22:15;99729.94;;;18.13;94.08
5522;BME280;2783;48.730;8.006;2022-09-24T09:24:47;99738.97;;;18.12;94.38
5522;BME280;2783;48.730;8.006;2022-09-24T09:27:14;99738.13;;;18.12;94.82
5522;BME280;2783;48.730;8.006;2022-09-24T09:29:46;99738.31;;;18.09;96.09
5522;BME280;2783;48.730;8.006;2022-09-24T09:35:02;99740.19;;;18.21;98.62
5522;BME280;2783;48.730;8.006;2022-09-24T09:42:41;99741.91;;;18.74;98.85
5522;BME280;2783;48.730;8.006;2022-09-24T09:45:32;99739.13;;;18.88;98.50
5522;BME280;2783;48.730;8.006;2022-09-24T09:48:00;99737.91;;;19.04;98.03
5522;BME280;2783;48.730;8.006;2022-09-24T09:53:04;99742.72;;;19.24;96.88
5522;BME280;2783;48.730;8.006;2022-09-24T09:55:33;99739.75;;;19.29;98.04
5522;BME280;2783;48.730;8.006;2022-09-24T09:58:16;99745.22;;;19.40;96.17
5522;BME280;2783;48.730;8.006;2022-09-24T10:00:42;99736.19;;;19.88;96.17
5522;BME280;2783;48.730;8.006;2022-09-24T10:03:21;99739.13;;;20.43;92.71
5522;BME280;2783;48.730;8.006;2022-09-24T10:05:54;99723.00;;;20.87;88.76
5522;BME280;2783;48.730;8.006;2022-09-24T10:08:21;99742.22;;;21.18;84.80
5522;BME280;2783;48.730;8.006;2022-09-24T10:10:54;99741.50;;;21.27;83.36
5522;BME280;2783;48.730;8.006;2022-09-24T10:13:20;99743.09;;;21.29;83.35
5522;BME280;2783;48.730;8.006;2022-09-24T10:15:54;99741.13;;;21.31;81.98
5522;BME280;2783;48.730;8.006;2022-09-24T10:18:42;99744.31;;;21.36;81.93
5522;BME280;2783;48.730;8.006;2022-09-24T10:21:12;99730.78;;;21.25;81.51
5522;BME280;2783;48.730;8.006;2022-09-24T10:23:41;99722.56;;;21.27;81.12
5522;BME280;2783;48.730;8.006;2022-09-24T10:26:07;99718.22;;;21.35;80.74
5522;BME280;2783;48.730;8.006;2022-09-24T10:28:40;99717.22;;;21.58;79.97
5522;BME280;2783;48.730;8.006;2022-09-24T10:31:29;99726.59;;;21.43;77.07
5522;BME280;2783;48.730;8.006;2022-09-24T10:33:57;99727.09;;;21.37;79.15
5522;BME280;2783;48.730;8.006;2022-09-24T10:36:27;99727.19;;;21.47;79.68
5522;BME280;2783;48.730;8.006;2022-09-24T10:39:09;99719.94;;;21.47;80.05
5522;BME280;2783;48.730;8.006;2022-09-24T10:41:36;99721.78;;;21.58;79.36
5522;BME280;2783;48.730;8.006;2022-09-24T10:44:07;99719.69;;;21.61;79.56
5522;BME280;2783;48.730;8.006;2022-09-24T10:50:22;99721.28;;;21.64;79.10
5522;BME280;2783;48.730;8.006;2022-09-24T10:52:56;99712.09;;;21.44;79.27
5522;BME280;2783;48.730;8.006;2022-09-24T11:01:21;99712.19;;;20.76;81.20
5522;BME280;2783;48.730;8.006;2022-09-24T11:12:33;99705.16;;;20.63;85.44
5522;BME280;2783;48.730;8.006;2022-09-24T11:15:14;99699.88;;;20.72;85.19
5522;BME280;2783;48.730;8.006;2022-09-24T11:43:20;99693.25;;;21.32;77.97
5522;BME280;2783;48.730;8.006;2022-09-24T11:56:40;99679.63;;;21.87;74.26
5522;BME280;2783;48.730;8.006;2022-09-24T11:59:16;99675.84;;;22.10;75.21
5522;BME280;2783;48.730;8.006;2022-09-24T12:02:03;99671.03;;;22.34;73.93
5522;BME280;2783;48.730;8.006;2022-09-24T12:04:55;99669.31;;;22.33;70.61
5522;BME280;2783;48.730;8.006;2022-09-24T12:07:48;99659.00;;;22.48;71.82
5522;BME280;2783;48.730;8.006;2022-09-24T12:13:22;99662.09;;;22.64;70.15
5522;BME280;2783;48.730;8.006;2022-09-24T12:15:56;99669.13;;;22.66;69.69
5522;BME280;2783;48.730;8.006;2022-09-24T12:18:26;99659.06;;;22.57;69.00
5522;BME280;2783;48.730;8.006;2022-09-24T12:20:57;99656.75;;;22.73;69.93
5522;BME280;2783;48.730;8.006;2022-09-24T12:23:28;99653.16;;;23.33;68.88
5522;BME280;2783;48.730;8.006;2022-09-24T12:25:56;99658.06;;;23.68;67.29
5522;BME280;2783;48.730;8.006;2022-09-24T12:28:25;99653.06;;;23.54;65.69
5522;BME280;2783;48.730;8.006;2022-09-24T12:31:43;99654.03;;;23.43;64.73
5522;BME280;2783;48.730;8.006;2022-09-24T12:34:30;99652.38;;;23.21;65.43
5522;BME280;2783;48.730;8.006;2022-09-24T12:37:08;99646.19;;;23.50;65.12
5522;BME280;2783;48.730;8.006;2022-09-24T12:42:35;99645.94;;;24.48;63.10
5522;BME280;2783;48.730;8.006;2022-09-24T12:45:02;99642.53;;;24.92;60.63
5522;BME280;2783;48.730;8.006;2022-09-24T12:47:31;99643.09;;;24.86;58.53
5522;BME280;2783;48.730;8.006;2022-09-24T12:50:01;99641.44;;;24.66;58.33
5522;BME280;2783;48.730;8.006;2022-09-24T12:52:33;99635.19;;;24.37;59.42
5522;BME280;2783;48.730;8.006;2022-09-24T12:55:02;99640.88;;;24.72;59.45
5522;BME280;2783;48.730;8.006;2022-09-24T12:57:40;99643.47;;;25.10;58.42
5522;BME280;2783;48.730;8.006;2022-09-24T13:03:06;99641.34;;;25.58;58.09
5522;BME280;2783;48.730;8.006;2022-09-24T13:10:33;99631.09;;;26.23;53.27
5522;BME280;2783;48.730;8.006;2022-09-24T13:13:00;99629.69;;;26.19;52.96
5522;BME280;2783;48.730;8.006;2022-09-24T13:15:37;99630.28;;;26.56;53.84
5522;BME280;2783;48.730;8.006;2022-09-24T13:20:37;99625.75;;;26.82;51.35
5522;BME280;2783;48.730;8.006;2022-09-24T13:28:26;99619.25;;;26.14;50.40
5522;BME280;2783;48.730;8.006;2022-09-24T13:31:09;99614.41;;;26.08;51.56
5522;BME280;2783;48.730;8.006;2022-09-24T13:33:43;99619.66;;;26.19;48.94
5522;BME280;2783;48.730;8.006;2022-09-24T13:36:25;99610.31;;;26.04;51.20
5522;BME280;2783;48.730;8.006;2022-09-24T13:38:57;99613.91;;;25.42;52.28
5522;BME280;2783;48.730;8.006;2022-09-24T13:44:04;99614.06;;;25.14;54.33
5522;BME280;2783;48.730;8.006;2022-09-24T13:46:34;99602.69;;;25.01;53.26
5522;BME280;2783;48.730;8.006;2022-09-24T13:49:04;99599.78;;;24.75;54.76
5522;BME280;2783;48.730;8.006;2022-09-24T13:51:35;99597.81;;;24.48;53.38
5522;BME280;2783;48.730;8.006;2022-09-24T13:56:38;99592.59;;;23.71;57.80
5522;BME280;2783;48.730;8.006;2022-09-24T13:59:10;99598.63;;;23.46;58.23
5522;BME280;2783;48.730;8.006;2022-09-24T14:01:41;99591.88;;;23.40;58.70
5522;BME280;2783;48.730;8.006;2022-09-24T14:04:18;99588.75;;;23.64;58.84
5522;BME280;2783;48.730;8.006;2022-09-24T14:06:55;99599.22;;;24.06;57.75
5522;BME280;2783;48.730;8.006;2022-09-24T14:09:27;99596.16;;;24.38;53.29
5522;BME280;2783;48.730;8.006;2022-09-24T14:11:58;99596.72;;;24.32;54.60
5522;BME280;2783;48.730;8.006;2022-09-24T14:14:26;99591.16;;;24.24;53.92
5522;BME280;2783;48.730;8.006;2022-09-24T14:16:53;99587.47;;;24.06;56.16
5522;BME280;2783;48.730;8.006;2022-09-24T14:19:21;99579.47;;;23.95;57.24
5522;BME280;2783;48.730;8.006;2022-09-24T14:21:53;99568.59;;;23.95;55.94
5522;BME280;2783;48.730;8.006;2022-09-24T14:24:27;99579.44;;;24.14;53.95
5522;BME280;2783;48.730;8.006;2022-09-24T14:27:11;99573.16;;;23.94;52.38
5522;BME280;2783;48.730;8.006;2022-09-24T14:29:51;99564.44;;;23.53;55.77
5522;BME280;2783;48.730;8.006;2022-09-24T14:32:30;99587.41;;;23.29;57.88
5522;BME280;2783;48.730;8.006;2022-09-24T14:34:59;99585.50;;;23.11;58.63
5522;BME280;2783;48.730;8.006;2022-09-24T14:37:28;99585.00;;;22.87;57.86
5522;BME280;2783;48.730;8.006;2022-09-24T14:40:22;99580.63;;;22.65;59.70
5522;BME280;2783;48.730;8.006;2022-09-24T14:42:58;99581.66;;;22.44;60.62
5522;BME280;2783;48.730;8.006;2022-09-24T14:48:02;99580.28;;;22.08;67.07
5522;BME280;2783;48.730;8.006;2022-09-24T14:50:39;99580.50;;;21.95;69.70
5522;BME280;2783;48.730;8.006;2022-09-24T14:53:23;99578.69;;;21.85;71.75
5522;BME280;2783;48.730;8.006;2022-09-24T14:55:50;99579.47;;;21.76;71.16
5522;BME280;2783;48.730;8.006;2022-09-24T15:00:58;99586.00;;;21.42;74.33
5522;BME280;2783;48.730;8.006;2022-09-24T15:06:03;99586.22;;;21.07;78.25
5522;BME280;2783;48.730;8.006;2022-09-24T15:08:29;99582.28;;;20.89;78.58
5522;BME280;2783;48.730;8.006;2022-09-24T15:10:57;99586.34;;;20.72;78.62
5522;BME280;2783;48.730;8.006;2022-09-24T15:13:26;99594.09;;;20.55;78.71
5522;BME280;2783;48.730;8.006;2022-09-24T15:16:25;99592.72;;;20.16;77.27
5522;BME280;2783;48.730;8.006;2022-09-24T15:19:08;99602.78;;;19.80;79.53
5522;BME280;2783;48.730;8.006;2022-09-24T15:21:37;99597.91;;;19.61;80.79
5522;BME280;2783;48.730;8.006;2022-09-24T15:24:02;99592.72;;;19.47;83.29
5522;BME280;2783;48.730;8.006;2022-09-24T15:26:30;99590.63;;;19.27;85.23
5522;BME280;2783;48.730;8.006;2022-09-24T15:28:58;99597.38;;;19.09;87.25
5522;BME280;2783;48.730;8.006;2022-09-24T15:31:23;99598.72;;;18.91;89.61
5522;BME280;2783;48.730;8.006;2022-09-24T15:33:50;99587.44;;;18.73;90.13
5522;BME280;2783;48.730;8.006;2022-09-24T15:36:15;99592.09;;;18.59;90.94
5522;BME280;2783;48.730;8.006;2022-09-24T15:38:45;99582.00;;;18.50;91.99